sensor_id;sensor_type;location;lat;lon;timestamp;pressure;altitude;pressure_sealevel;temperature;humidity
24230;BME280;12362;50.004;8.006;2022-10-29T00:02:18;101246.63;;;12.16;100.00
24230;BME280;12362;50.004;8.006;2022-10-29T00:04:44;101249.31;;;12.14;100.00
24230;BME280;12362;50.004;8.006;2022-10-29T00:07:09;101253.75;;;12.12;100.00
24230;BME280;12362;50.004;8.006;2022-10-29T00:09:38;101246.78;;;12.13;100.00
24230;BME280;12362;50.004;8.006;2022-10-29T00:12:04;101258.63;;;12.20;100.00
24230;BME280;12362;50.004;8.006;2022-10-29T00:14:29;101257.13;;;12.14;100.00
24230;BME280;12362;50.004;8.006;2022-10-29T00:16:55;101260.44;;;11.98;100.00
24230;BME280;12362;50.004;8.006;2022-10-29T00:19:21;101258.63;;;11.78;100.00
24230;BME280;12362;50.004;8.006;2022-10-29T00:21:49;101258.53;;;11.80;100.00
24230;BME280;12362;50.004;8.006;2022-10-29T00:24:15;101255.72;;;11.86;100.00
24230;BME280;12362;50.004;8.006;2022-10-29T00:26:40;101253.44;;;11.98;100.00
24230;BME280;12362;50.004;8.006;2022-10-29T00:29:07;101251.44;;;12.05;100.00
24230;BME280;12362;50.004;8.006;2022-10-29T00:31:34;101249.72;;;12.05;100.00
24230;BME280;12362;50.004;8.006;2022-10-29T00:34:03;101248.81;;;12.06;100.00
24230;BME280;12362;50.004;8.006;2022-10-29T00:36:29;101254.31;;;11.99;100.00
24230;BME280;12362;50.004;8.006;2022-10-29T00:38:55;101259.94;;;11.88;100.00
24230;BME280;12362;50.004;8.006;2022-10-29T00:41:27;101253.22;;;11.83;100.00
24230;BME280;12362;50.004;8.006;2022-10-29T00:46:56;101246.63;;;11.75;100.00
24230;BME280;12362;50.004;8.006;2022-10-29T00:49:23;101247.69;;;11.71;100.00
24230;BME280;12362;50.004;8.006;2022-10-29T00:51:51;101255.22;;;11.77;100.00
24230;BME280;12362;50.004;8.006;2022-10-29T00:54:17;101254.22;;;11.80;100.00
24230;BME280;12362;50.004;8.006;2022-10-29T00:56:48;101258.69;;;11.77;100.00
24230;BME280;12362;50.004;8.006;2022-10-29T00:59:16;101260.53;;;11.74;100.00
24230;BME280;12362;50.004;8.006;2022-10-29T01:01:43;101253.22;;;11.62;100.00
24230;BME280;12362;50.004;8.006;2022-10-29T01:04:09;101260.69;;;11.71;100.00
24230;BME280;12362;50.004;8.006;2022-10-29T01:06:36;101260.88;;;11.66;100.00
24230;BME280;12362;50.004;8.006;2022-10-29T01:09:01;101267.03;;;11.64;100.00
24230;BME280;12362;50.004;8.006;2022-10-29T01:16:58;101250.22;;;11.49;100.00
24230;BME280;12362;50.004;8.006;2022-10-29T01:27:58;101249.59;;;11.66;100.00
24230;BME280;12362;50.004;8.006;2022-10-29T01:30:36;101245.94;;;11.48;100.00
24230;BME280;12362;50.004;8.006;2022-10-29T01:36:01;101248.44;;;11.51;100.00
24230;BME280;12362;50.004;8.006;2022-10-29T01:44:49;101241.56;;;11.27;100.00
24230;BME280;12362;50.004;8.006;2022-10-29T01:47:18;101243.09;;;11.33;100.00
24230;BME280;12362;50.004;8.006;2022-10-29T01:49:47;101236.69;;;11.41;100.00
24230;BME280;12362;50.004;8.006;2022-10-29T01:52:15;101240.31;;;11.37;100.00
24230;BME280;12362;50.004;8.006;2022-10-29T01:54:44;101241.69;;;11.24;100.00
24230;BME280;12362;50.004;8.006;2022-10-29T01:57:31;101243.19;;;11.30;100.00
24230;BME280;12362;50.004;8.006;2022-10-29T02:00:00;101244.09;;;11.29;100.00
24230;BME280;12362;50.004;8.006;2022-10-29T02:08:18;101242.78;;;11.40;100.00
24230;BME280;12362;50.004;8.006;2022-10-29T02:11:08;101245.88;;;11.28;100.00
24230;BME280;12362;50.004;8.006;2022-10-29T02:16:20;101244.22;;;11.26;100.00
24230;BME280;12362;50.004;8.006;2022-10-29T02:18:47;101241.75;;;11.23;100.00
24230;BME280;12362;50.004;8.006;2022-10-29T02:21:15;101234.66;;;11.26;100.00
24230;BME280;12362;50.004;8.006;2022-10-29T02:23:40;101241.47;;;11.30;100.00
24230;BME280;12362;50.004;8.006;2022-10-29T02:26:06;101243.31;;;11.27;100.00
24230;BME280;12362;50.004;8.006;2022-10-29T02:28:31;101240.41;;;11.13;100.00
24230;BME280;12362;50.004;8.006;2022-10-29T02:30:57;101246.59;;;11.09;100.00
24230;BME280;12362;50.004;8.006;2022-10-29T02:33:22;101248.34;;;11.08;100.00
24230;BME280;12362;50.004;8.006;2022-10-29T02:35:48;101246.88;;;11.01;100.00
24230;BME280;12362;50.004;8.006;2022-10-29T02:38:13;101245.09;;;10.81;100.00
24230;BME280;12362;50.004;8.006;2022-10-29T02:40:38;101241.44;;;10.84;100.00
24230;BME280;12362;50.004;8.006;2022-10-29T02:43:19;101231.56;;;10.94;100.00
24230;BME280;12362;50.004;8.006;2022-10-29T02:45:45;101233.97;;;11.00;100.00
24230;BME280;12362;50.004;8.006;2022-10-29T02:48:10;101230.16;;;11.08;100.00
24230;BME280;12362;50.004;8.006;2022-10-29T02:50:36;101235.69;;;10.99;100.00
24230;BME280;12362;50.004;8.006;2022-10-29T02:53:02;101226.81;;;11.05;100.00
24230;BME280;12362;50.004;8.006;2022-10-29T02:55:27;101223.84;;;10.92;100.00
24230;BME280;12362;50.004;8.006;2022-10-29T02:57:52;101224.56;;;10.96;100.00
24230;BME280;12362;50.004;8.006;2022-10-29T03:00:18;101222.19;;;10.90;100.00
24230;BME280;12362;50.004;8.006;2022-10-29T03:02:43;101229.94;;;10.91;100.00
24230;BME280;12362;50.004;8.006;2022-10-29T03:05:09;101229.66;;;10.99;100.00
24230;BME280;12362;50.004;8.006;2022-10-29T03:07:37;101220.09;;;10.99;100.00
24230;BME280;12362;50.004;8.006;2022-10-29T03:10:04;101227.47;;;10.88;100.00
24230;BME280;12362;50.004;8.006;2022-10-29T03:12:30;101229.78;;;10.96;100.00
24230;BME280;12362;50.004;8.006;2022-10-29T03:14:55;101235.53;;;11.04;100.00
24230;BME280;12362;50.004;8.006;2022-10-29T03:17:21;101236.50;;;11.01;100.00
24230;BME280;12362;50.004;8.006;2022-10-29T03:19:46;101244.38;;;10.76;100.00
24230;BME280;12362;50.004;8.006;2022-10-29T03:22:12;101245.41;;;10.72;100.00
24230;BME280;12362;50.004;8.006;2022-10-29T03:24:37;101236.94;;;10.67;100.00
24230;BME280;12362;50.004;8.006;2022-10-29T03:27:02;101239.47;;;10.68;100.00
24230;BME280;12362;50.004;8.006;2022-10-29T03:29:28;101233.38;;;10.69;100.00
24230;BME280;12362;50.004;8.006;2022-10-29T03:31:53;101241.97;;;10.71;100.00
24230;BME280;12362;50.004;8.006;2022-10-29T03:34:18;101246.88;;;10.79;100.00
24230;BME280;12362;50.004;8.006;2022-10-29T03:36:44;101245.88;;;10.83;100.00
24230;BME280;12362;50.004;8.006;2022-10-29T03:39:09;101248.34;;;10.85;100.00
24230;BME280;12362;50.004;8.006;2022-10-29T03:41:34;101234.44;;;10.64;100.00
24230;BME280;12362;50.004;8.006;2022-10-29T03:44:15;101234.22;;;10.45;100.00
24230;BME280;12362;50.004;8.006;2022-10-29T03:46:41;101232.09;;;10.56;100.00
24230;BME280;12362;50.004;8.006;2022-10-29T03:49:06;101242.19;;;10.65;100.00
24230;BME280;12362;50.004;8.006;2022-10-29T03:51:31;101236.75;;;10.71;100.00
24230;BME280;12362;50.004;8.006;2022-10-29T03:53:57;101243.75;;;10.69;100.00
24230;BME280;12362;50.004;8.006;2022-10-29T03:56:22;101249.91;;;10.67;100.00
24230;BME280;12362;50.004;8.006;2022-10-29T03:58:47;101249.75;;;10.71;100.00
24230;BME280;12362;50.004;8.006;2022-10-29T04:01:13;101242.19;;;10.65;100.00
24230;BME280;12362;50.004;8.006;2022-10-29T04:03:38;101234.50;;;10.62;100.00
24230;BME280;12362;50.004;8.006;2022-10-29T04:06:11;101239.19;;;10.76;100.00
24230;BME280;12362;50.004;8.006;2022-10-29T04:08:37;101227.53;;;10.87;100.00
24230;BME280;12362;50.004;8.006;2022-10-29T04:11:03;101224.47;;;10.99;100.00
24230;BME280;12362;50.004;8.006;2022-10-29T04:13:29;101214.97;;;10.98;100.00
24230;BME280;12362;50.004;8.006;2022-10-29T04:15:55;101222.44;;;11.07;100.00
24230;BME280;12362;50.004;8.006;2022-10-29T04:18:21;101199.47;;;11.18;100.00
24230;BME280;12362;50.004;8.006;2022-10-29T04:20:46;101196.75;;;11.21;100.00
24230;BME280;12362;50.004;8.006;2022-10-29T04:23:12;101201.97;;;11.21;100.00
24230;BME280;12362;50.004;8.006;2022-10-29T04:25:37;101207.88;;;11.24;100.00
24230;BME280;12362;50.004;8.006;2022-10-29T04:28:03;101219.72;;;11.31;100.00
24230;BME280;12362;50.004;8.006;2022-10-29T04:30:28;101231.41;;;11.43;100.00
24230;BME280;12362;50.004;8.006;2022-10-29T04:32:57;101228.44;;;11.53;100.00
24230;BME280;12362;50.004;8.006;2022-10-29T04:35:24;101223.31;;;11.50;100.00
24230;BME280;12362;50.004;8.006;2022-10-29T04:37:50;101231.13;;;11.50;100.00
24230;BME280;12362;50.004;8.006;2022-10-29T04:40:16;101221.56;;;11.51;100.00
24230;BME280;12362;50.004;8.006;2022-10-29T04:42:44;101232.75;;;11.54;100.00
24230;BME280;12362;50.004;8.006;2022-10-29T04:45:10;101226.31;;;11.63;100.00
24230;BME280;12362;50.004;8.006;2022-10-29T04:47:35;101221.97;;;11.63;100.00
24230;BME280;12362;50.004;8.006;2022-10-29T04:50:01;101228.72;;;11.67;100.00
24230;BME280;12362;50.004;8.006;2022-10-29T04:52:26;101221.53;;;11.74;100.00
24230;BME280;12362;50.004;8.006;2022-10-29T04:54:52;101218.63;;;11.81;100.00
24230;BME280;12362;50.004;8.006;2022-10-29T04:57:17;101210.69;;;11.84;100.00
24230;BME280;12362;50.004;8.006;2022-10-29T04:59:42;101212.38;;;11.85;100.00
24230;BME280;12362;50.004;8.006;2022-10-29T05:02:09;101208.91;;;11.84;100.00
24230;BME280;12362;50.004;8.006;2022-10-29T05:04:35;101207.09;;;11.86;100.00
24230;BME280;12362;50.004;8.006;2022-10-29T05:07:00;101214.91;;;11.86;100.00
24230;BME280;12362;50.004;8.006;2022-10-29T05:09:25;101211.53;;;11.84;100.00
24230;BME280;12362;50.004;8.006;2022-10-29T05:11:51;101215.78;;;11.87;100.00
24230;BME280;12362;50.004;8.006;2022-10-29T05:14:16;101216.50;;;11.90;100.00
24230;BME280;12362;50.004;8.006;2022-10-29T05:16:42;101221.69;;;11.90;100.00
24230;BME280;12362;50.004;8.006;2022-10-29T05:19:07;101216.41;;;11.92;100.00
24230;BME280;12362;50.004;8.006;2022-10-29T05:21:33;101204.38;;;11.89;100.00
24230;BME280;12362;50.004;8.006;2022-10-29T05:23:58;101214.38;;;12.00;100.00
24230;BME280;12362;50.004;8.006;2022-10-29T05:26:23;101198.19;;;11.92;100.00
24230;BME280;12362;50.004;8.006;2022-10-29T05:28:49;101194.88;;;11.88;100.00
24230;BME280;12362;50.004;8.006;2022-10-29T05:31:18;101197.38;;;11.91;100.00
24230;BME280;12362;50.004;8.006;2022-10-29T05:33:43;101200.56;;;11.98;100.00
24230;BME280;12362;50.004;8.006;2022-10-29T05:36:09;101194.34;;;12.02;100.00
24230;BME280;12362;50.004;8.006;2022-10-29T05:38:35;101197.69;;;12.04;100.00
24230;BME280;12362;50.004;8.006;2022-10-29T05:41:01;101198.00;;;11.96;100.00
24230;BME280;12362;50.004;8.006;2022-10-29T05:43:26;101203.28;;;11.95;100.00
24230;BME280;12362;50.004;8.006;2022-10-29T05:45:52;101204.88;;;11.99;100.00
24230;BME280;12362;50.004;8.006;2022-10-29T05:48:17;101199.38;;;12.05;100.00
24230;BME280;12362;50.004;8.006;2022-10-29T05:50:44;101201.75;;;12.11;100.00
24230;BME280;12362;50.004;8.006;2022-10-29T05:53:11;101201.66;;;12.12;100.00
24230;BME280;12362;50.004;8.006;2022-10-29T05:55:38;101199.97;;;12.11;100.00
24230;BME280;12362;50.004;8.006;2022-10-29T05:58:05;101203.44;;;12.12;100.00
24230;BME280;12362;50.004;8.006;2022-10-29T06:00:33;101205.72;;;12.19;100.00
24230;BME280;12362;50.004;8.006;2022-10-29T06:02:59;101214.16;;;12.24;100.00
24230;BME280;12362;50.004;8.006;2022-10-29T06:05:25;101213.13;;;12.28;100.00
24230;BME280;12362;50.004;8.006;2022-10-29T06:07:55;101209.66;;;12.28;100.00
24230;BME280;12362;50.004;8.006;2022-10-29T06:10:22;101214.88;;;12.28;100.00
24230;BME280;12362;50.004;8.006;2022-10-29T06:12:48;101213.94;;;12.30;100.00
24230;BME280;12362;50.004;8.006;2022-10-29T06:15:14;101218.97;;;12.33;100.00
24230;BME280;12362;50.004;8.006;2022-10-29T06:17:40;101213.03;;;12.31;100.00
24230;BME280;12362;50.004;8.006;2022-10-29T06:20:07;101213.97;;;12.29;100.00
24230;BME280;12362;50.004;8.006;2022-10-29T06:22:33;101212.03;;;12.34;100.00
24230;BME280;12362;50.004;8.006;2022-10-29T06:24:58;101207.72;;;12.33;100.00
24230;BME280;12362;50.004;8.006;2022-10-29T06:27:24;101210.97;;;12.38;100.00
24230;BME280;12362;50.004;8.006;2022-10-29T06:29:52;101210.00;;;12.40;100.00
24230;BME280;12362;50.004;8.006;2022-10-29T06:32:20;101212.28;;;12.48;100.00
24230;BME280;12362;50.004;8.006;2022-10-29T06:34:46;101219.94;;;12.51;100.00
24230;BME280;12362;50.004;8.006;2022-10-29T06:37:11;101225.75;;;12.57;100.00
24230;BME280;12362;50.004;8.006;2022-10-29T06:39:37;101224.69;;;12.61;100.00
24230;BME280;12362;50.004;8.006;2022-10-29T06:42:03;101232.31;;;12.66;100.00
24230;BME280;12362;50.004;8.006;2022-10-29T06:44:28;101228.53;;;12.72;100.00
24230;BME280;12362;50.004;8.006;2022-10-29T06:46:56;101224.25;;;12.71;100.00
24230;BME280;12362;50.004;8.006;2022-10-29T06:49:22;101229.38;;;12.73;100.00
24230;BME280;12362;50.004;8.006;2022-10-29T06:51:47;101229.38;;;12.73;100.00
24230;BME280;12362;50.004;8.006;2022-10-29T06:54:13;101226.84;;;12.71;100.00
24230;BME280;12362;50.004;8.006;2022-10-29T06:56:38;101219.03;;;12.71;100.00
24230;BME280;12362;50.004;8.006;2022-10-29T06:59:04;101216.06;;;12.79;100.00
24230;BME280;12362;50.004;8.006;2022-10-29T07:01:29;101215.63;;;12.89;100.00
24230;BME280;12362;50.004;8.006;2022-10-29T07:03:58;101209.94;;;13.00;100.00
24230;BME280;12362;50.004;8.006;2022-10-29T07:06:23;101203.59;;;13.05;100.00
24230;BME280;12362;50.004;8.006;2022-10-29T07:08:49;101202.34;;;13.14;100.00
24230;BME280;12362;50.004;8.006;2022-10-29T07:11:14;101214.94;;;13.23;100.00
24230;BME280;12362;50.004;8.006;2022-10-29T07:13:40;101217.19;;;13.30;100.00
24230;BME280;12362;50.004;8.006;2022-10-29T07:16:06;101211.53;;;13.39;100.00
24230;BME280;12362;50.004;8.006;2022-10-29T07:18:32;101210.25;;;13.48;100.00
24230;BME280;12362;50.004;8.006;2022-10-29T07:20:57;101225.69;;;13.52;100.00
24230;BME280;12362;50.004;8.006;2022-10-29T07:23:23;101214.03;;;13.59;100.00
24230;BME280;12362;50.004;8.006;2022-10-29T07:25:51;101213.66;;;13.66;100.00
24230;BME280;12362;50.004;8.006;2022-10-29T07:28:19;101214.91;;;13.76;100.00
24230;BME280;12362;50.004;8.006;2022-10-29T07:30:45;101221.59;;;13.82;100.00
24230;BME280;12362;50.004;8.006;2022-10-29T07:33:12;101228.38;;;13.86;100.00
24230;BME280;12362;50.004;8.006;2022-10-29T07:35:39;101213.25;;;13.92;100.00
24230;BME280;12362;50.004;8.006;2022-10-29T07:38:05;101223.38;;;13.98;100.00
24230;BME280;12362;50.004;8.006;2022-10-29T07:40:31;101217.00;;;14.04;100.00
24230;BME280;12362;50.004;8.006;2022-10-29T07:42:59;101229.09;;;14.06;100.00
24230;BME280;12362;50.004;8.006;2022-10-29T07:45:25;101223.53;;;14.14;100.00
24230;BME280;12362;50.004;8.006;2022-10-29T07:47:58;101223.88;;;14.23;100.00
24230;BME280;12362;50.004;8.006;2022-10-29T07:50:24;101222.13;;;14.24;100.00
24230;BME280;12362;50.004;8.006;2022-10-29T07:52:50;101227.34;;;14.24;100.00
24230;BME280;12362;50.004;8.006;2022-10-29T07:55:15;101234.09;;;14.28;100.00
24230;BME280;12362;50.004;8.006;2022-10-29T07:57:41;101236.41;;;14.34;100.00
24230;BME280;12362;50.004;8.006;2022-10-29T08:00:07;101238.66;;;14.41;100.00
24230;BME280;12362;50.004;8.006;2022-10-29T08:02:32;101241.03;;;14.46;100.00
24230;BME280;12362;50.004;8.006;2022-10-29T08:04:57;101234.19;;;14.43;100.00
24230;BME280;12362;50.004;8.006;2022-10-29T08:07:23;101239.94;;;14.50;100.00
24230;BME280;12362;50.004;8.006;2022-10-29T08:09:48;101234.25;;;14.58;100.00
24230;BME280;12362;50.004;8.006;2022-10-29T08:12:14;101236.72;;;14.61;100.00
24230;BME280;12362;50.004;8.006;2022-10-29T08:14:39;101232.16;;;14.65;100.00
24230;BME280;12362;50.004;8.006;2022-10-29T08:17:05;101231.25;;;14.66;100.00
24230;BME280;12362;50.004;8.006;2022-10-29T08:19:30;101227.59;;;14.68;100.00
24230;BME280;12362;50.004;8.006;2022-10-29T08:21:55;101227.47;;;14.71;100.00
24230;BME280;12362;50.004;8.006;2022-10-29T08:24:21;101231.75;;;14.72;100.00
24230;BME280;12362;50.004;8.006;2022-10-29T08:26:46;101221.81;;;14.79;100.00
24230;BME280;12362;50.004;8.006;2022-10-29T08:29:13;101219.72;;;14.85;100.00
24230;BME280;12362;50.004;8.006;2022-10-29T08:31:39;101220.56;;;14.86;100.00
24230;BME280;12362;50.004;8.006;2022-10-29T08:34:05;101214.41;;;14.87;100.00
24230;BME280;12362;50.004;8.006;2022-10-29T08:36:33;101220.16;;;14.93;100.00
24230;BME280;12362;50.004;8.006;2022-10-29T08:38:59;101206.00;;;14.97;100.00
24230;BME280;12362;50.004;8.006;2022-10-29T08:42:10;101220.59;;;15.01;100.00
24230;BME280;12362;50.004;8.006;2022-10-29T08:47:16;101224.19;;;15.16;100.00
24230;BME280;12362;50.004;8.006;2022-10-29T08:50:26;101227.38;;;15.21;100.00
24230;BME280;12362;50.004;8.006;2022-10-29T08:52:54;101224.13;;;15.33;100.00
24230;BME280;12362;50.004;8.006;2022-10-29T08:55:33;101232.22;;;15.28;100.00
24230;BME280;12362;50.004;8.006;2022-10-29T08:58:12;101223.19;;;15.34;100.00
24230;BME280;12362;50.004;8.006;2022-10-29T09:00:45;101228.69;;;15.29;100.00
24230;BME280;12362;50.004;8.006;2022-10-29T09:03:13;101230.53;;;15.43;100.00
24230;BME280;12362;50.004;8.006;2022-10-29T09:06:03;101221.41;;;15.65;100.00
24230;BME280;12362;50.004;8.006;2022-10-29T09:12:06;101217.44;;;15.73;100.00
24230;BME280;12362;50.004;8.006;2022-10-29T09:15:14;101220.78;;;15.91;100.00
24230;BME280;12362;50.004;8.006;2022-10-29T09:26:10;101207.78;;;16.03;100.00
24230;BME280;12362;50.004;8.006;2022-10-29T09:34:24;101202.94;;;16.11;100.00
24230;BME280;12362;50.004;8.006;2022-10-29T09:36:52;101203.44;;;16.18;100.00
24230;BME280;12362;50.004;8.006;2022-10-29T09:39:32;101207.56;;;16.22;100.00
24230;BME280;12362;50.004;8.006;2022-10-29T09:42:00;101207.22;;;16.28;100.00
24230;BME280;12362;50.004;8.006;2022-10-29T09:44:34;101209.09;;;16.26;100.00
24230;BME280;12362;50.004;8.006;2022-10-29T09:47:15;101211.13;;;16.21;100.00
24230;BME280;12362;50.004;8.006;2022-10-29T09:52:34;101204.75;;;16.40;100.00
24230;BME280;12362;50.004;8.006;2022-10-29T09:55:03;101195.97;;;16.55;100.00
24230;BME280;12362;50.004;8.006;2022-10-29T09:57:30;101195.88;;;16.70;100.00
24230;BME280;12362;50.004;8.006;2022-10-29T10:00:04;101197.84;;;16.81;100.00
24230;BME280;12362;50.004;8.006;2022-10-29T10:02:47;101193.13;;;17.00;100.00
24230;BME280;12362;50.004;8.006;2022-10-29T10:05:15;101193.72;;;17.05;100.00
24230;BME280;12362;50.004;8.006;2022-10-29T10:08:03;101201.19;;;17.11;100.00
24230;BME280;12362;50.004;8.006;2022-10-29T10:10:35;101193.50;;;17.08;100.00
24230;BME280;12362;50.004;8.006;2022-10-29T10:13:05;101190.03;;;17.07;100.00
24230;BME280;12362;50.004;8.006;2022-10-29T10:15:35;101188.53;;;17.03;100.00
24230;BME280;12362;50.004;8.006;2022-10-29T10:18:02;101178.13;;;17.16;100.00
24230;BME280;12362;50.004;8.006;2022-10-29T10:20:37;101172.84;;;17.30;100.00
24230;BME280;12362;50.004;8.006;2022-10-29T10:23:25;101182.88;;;17.23;100.00
24230;BME280;12362;50.004;8.006;2022-10-29T10:25:56;101175.66;;;17.27;100.00
24230;BME280;12362;50.004;8.006;2022-10-29T10:28:27;101168.56;;;17.55;100.00
24230;BME280;12362;50.004;8.006;2022-10-29T10:31:06;101164.78;;;17.98;100.00
24230;BME280;12362;50.004;8.006;2022-10-29T10:33:33;101157.84;;;18.23;100.00
24230;BME280;12362;50.004;8.006;2022-10-29T10:36:05;101156.34;;;18.44;100.00
24230;BME280;12362;50.004;8.006;2022-10-29T10:38:42;101143.19;;;18.69;100.00
24230;BME280;12362;50.004;8.006;2022-10-29T10:41:10;101138.13;;;18.66;100.00
24230;BME280;12362;50.004;8.006;2022-10-29T10:43:37;101135.28;;;18.69;100.00
24230;BME280;12362;50.004;8.006;2022-10-29T10:46:12;101130.25;;;18.66;100.00
24230;BME280;12362;50.004;8.006;2022-10-29T10:48:39;101129.28;;;18.67;100.00
24230;BME280;12362;50.004;8.006;2022-10-29T10:51:22;101126.56;;;18.56;100.00
24230;BME280;12362;50.004;8.006;2022-10-29T10:53:49;101125.84;;;18.54;100.00
24230;BME280;12362;50.004;8.006;2022-10-29T10:56:17;101110.38;;;18.49;100.00
24230;BME280;12362;50.004;8.006;2022-10-29T10:59:06;101109.09;;;18.42;100.00
24230;BME280;12362;50.004;8.006;2022-10-29T11:01:40;101113.94;;;18.36;100.00
24230;BME280;12362;50.004;8.006;2022-10-29T11:04:14;101106.81;;;18.26;100.00
24230;BME280;12362;50.004;8.006;2022-10-29T11:06:44;101099.22;;;18.21;100.00
24230;BME280;12362;50.004;8.006;2022-10-29T11:09:33;101101.31;;;18.16;100.00
24230;BME280;12362;50.004;8.006;2022-10-29T11:12:07;101103.66;;;18.33;100.00
24230;BME280;12362;50.004;8.006;2022-10-29T11:20:18;101096.03;;;18.53;100.00
24230;BME280;12362;50.004;8.006;2022-10-29T11:26:01;101101.41;;;18.64;100.00
24230;BME280;12362;50.004;8.006;2022-10-29T11:28:44;101093.94;;;18.58;100.00
24230;BME280;12362;50.004;8.006;2022-10-29T11:31:39;101089.28;;;18.62;100.00
24230;BME280;12362;50.004;8.006;2022-10-29T11:34:15;101091.84;;;18.63;100.00
24230;BME280;12362;50.004;8.006;2022-10-29T11:36:53;101085.16;;;18.83;100.00
24230;BME280;12362;50.004;8.006;2022-10-29T11:39:29;101085.22;;;18.94;100.00
24230;BME280;12362;50.004;8.006;2022-10-29T11:41:57;101082.25;;;18.98;100.00
24230;BME280;12362;50.004;8.006;2022-10-29T11:44:30;101068.84;;;19.01;100.00
24230;BME280;12362;50.004;8.006;2022-10-29T11:50:05;101071.63;;;19.12;100.00
24230;BME280;12362;50.004;8.006;2022-10-29T11:55:19;101050.09;;;19.18;100.00
24230;BME280;12362;50.004;8.006;2022-10-29T11:58:24;101058.09;;;19.17;100.00
24230;BME280;12362;50.004;8.006;2022-10-29T12:00:54;101048.41;;;19.17;100.00
24230;BME280;12362;50.004;8.006;2022-10-29T12:06:20;101043.91;;;19.07;100.00
24230;BME280;12362;50.004;8.006;2022-10-29T12:09:04;101045.56;;;19.08;100.00
24230;BME280;12362;50.004;8.006;2022-10-29T12:11:45;101036.72;;;19.09;100.00
24230;BME280;12362;50.004;8.006;2022-10-29T12:17:54;101035.75;;;19.10;100.00
24230;BME280;12362;50.004;8.006;2022-10-29T12:20:39;101017.78;;;19.27;100.00
24230;BME280;12362;50.004;8.006;2022-10-29T12:23:32;101025.47;;;19.30;100.00
24230;BME280;12362;50.004;8.006;2022-10-29T12:26:21;101019.00;;;19.23;100.00
24230;BME280;12362;50.004;8.006;2022-10-29T12:31:53;101020.81;;;19.33;100.00
24230;BME280;12362;50.004;8.006;2022-10-29T12:37:13;101010.28;;;19.33;100.00
24230;BME280;12362;50.004;8.006;2022-10-29T12:39:46;101012.28;;;19.53;100.00
24230;BME280;12362;50.004;8.006;2022-10-29T12:50:36;101015.63;;;19.66;100.00
24230;BME280;12362;50.004;8.006;2022-10-29T12:55:43;101001.78;;;19.75;100.00
24230;BME280;12362;50.004;8.006;2022-10-29T12:58:49;100997.25;;;19.88;100.00
24230;BME280;12362;50.004;8.006;2022-10-29T13:09:30;100985.97;;;19.75;100.00
24230;BME280;12362;50.004;8.006;2022-10-29T13:12:02;100983.44;;;19.85;100.00
24230;BME280;12362;50.004;8.006;2022-10-29T13:17:31;100986.81;;;19.98;100.00
24230;BME280;12362;50.004;8.006;2022-10-29T13:22:54;100980.50;;;20.00;100.00
24230;BME280;12362;50.004;8.006;2022-10-29T13:27:58;100964.06;;;20.18;100.00
24230;BME280;12362;50.004;8.006;2022-10-29T13:30:26;100954.00;;;20.66;100.00
24230;BME280;12362;50.004;8.006;2022-10-29T13:32:53;100946.94;;;20.98;100.00
24230;BME280;12362;50.004;8.006;2022-10-29T13:43:24;100954.28;;;21.46;100.00
24230;BME280;12362;50.004;8.006;2022-10-29T13:46:17;100943.94;;;21.43;100.00
24230;BME280;12362;50.004;8.006;2022-10-29T13:48:47;100931.19;;;21.68;100.00
24230;BME280;12362;50.004;8.006;2022-10-29T13:51:23;100925.22;;;21.66;100.00
24230;BME280;12362;50.004;8.006;2022-10-29T13:54:18;100935.91;;;21.65;100.00
24230;BME280;12362;50.004;8.006;2022-10-29T13:56:52;100933.16;;;21.66;100.00
24230;BME280;12362;50.004;8.006;2022-10-29T13:59:41;100941.75;;;21.68;100.00
24230;BME280;12362;50.004;8.006;2022-10-29T14:07:53;100930.22;;;21.08;100.00
24230;BME280;12362;50.004;8.006;2022-10-29T14:10:41;100932.25;;;20.84;100.00
24230;BME280;12362;50.004;8.006;2022-10-29T14:16:34;100927.72;;;21.07;100.00
24230;BME280;12362;50.004;8.006;2022-10-29T14:19:19;100926.09;;;21.15;100.00
24230;BME280;12362;50.004;8.006;2022-10-29T14:21:45;100929.50;;;21.06;100.00
24230;BME280;12362;50.004;8.006;2022-10-29T14:24:14;100930.94;;;21.10;100.00
24230;BME280;12362;50.004;8.006;2022-10-29T14:26:42;100933.91;;;21.16;100.00
24230;BME280;12362;50.004;8.006;2022-10-29T14:29:19;100927.63;;;20.97;100.00
24230;BME280;12362;50.004;8.006;2022-10-29T14:31:45;100933.75;;;20.98;100.00
24230;BME280;12362;50.004;8.006;2022-10-29T14:34:23;100939.31;;;20.95;100.00
24230;BME280;12362;50.004;8.006;2022-10-29T14:36:53;100938.44;;;20.94;100.00
24230;BME280;12362;50.004;8.006;2022-10-29T14:39:26;100937.72;;;20.92;100.00
24230;BME280;12362;50.004;8.006;2022-10-29T14:41:54;100940.19;;;20.73;100.00
24230;BME280;12362;50.004;8.006;2022-10-29T14:44:47;100933.75;;;20.66;100.00
24230;BME280;12362;50.004;8.006;2022-10-29T14:49:49;100938.06;;;20.56;100.00
24230;BME280;12362;50.004;8.006;2022-10-29T14:52:32;100930.44;;;20.53;100.00
24230;BME280;12362;50.004;8.006;2022-10-29T14:55:06;100932.81;;;20.45;100.00
24230;BME280;12362;50.004;8.006;2022-10-29T15:00:48;100942.22;;;20.38;100.00
24230;BME280;12362;50.004;8.006;2022-10-29T15:03:19;100940.31;;;20.29;100.00
24230;BME280;12362;50.004;8.006;2022-10-29T15:05:47;100938.66;;;20.07;100.00
24230;BME280;12362;50.004;8.006;2022-10-29T15:08:21;100928.94;;;19.85;100.00
24230;BME280;12362;50.004;8.006;2022-10-29T15:10:56;100927.59;;;19.69;100.00